Weather observations for the past three days for
Albert Lea, Albert Lea Municipal Airport
Imperial (Metric)
Date Time (cdt) Wind (mph) Vis. (mi.) Weather Sky Cond. Temperature (ºF) Relative Humidity Wind Chill (°F) Heat Index (°F) Pressure Precipitation (in)
Air Dwpt 6 hour altimeter (in) sea level (mb) 1 hr 3 hr 6 hr
Max. Min.
09 06:35 NW 8 10.00 Overcast BKN095 OVC120 50.9 31.1 47% 29.67 0.0
09 06:15 W 7 10.00 Overcast OVC120 50.7 30.6 46% 29.65 0.0
09 05:55 W 8 10.00 Overcast OVC130 50.5 30 45% 29.64 0.0
09 05:35 Vrbl 7 10.00 Overcast FEW100 BKN130 BKN150 OVC220 48.9 29.7 48% 46 29.61 0.0
09 05:15 SW 8 10.00 Mostly Cloudy SCT100 BKN180 BKN220 48.2 30 50% 45 29.6 0.0
09 04:55 SW 7 10.00 Partly Cloudy SCT180 47.7 32 55% 45 29.61 0.0
09 04:35 SW 7 10.00 Fair CLR 47.8 31.6 54% 45 29.62 0.0
09 04:15 SW 7 10.00 Fair CLR 48 31.6 53% 45 29.62 0.0
09 03:55 SW 8 10.00 Fair CLR 48 30 50% 45 29.62 0.0
09 03:35 SW 6 10.00 Fair CLR 48.2 32 54% 46 29.62 0.0
09 03:15 SW 7 10.00 Fair CLR 48.4 31.1 51% 46 29.61 0.0
09 02:55 SW 5 10.00 Fair CLR 46.9 38.5 73% 45 29.62 0.0
09 02:35 SW 5 10.00 Fair CLR 47.1 36.5 67% 46 29.63 0.0
09 02:15 SW 5 10.00 Fair CLR 45.5 37.8 74% 44 29.64 0.0
09 01:55 SW 3 10.00 Fair CLR 48.2 34.2 58% 29.64 0.0
09 01:35 SW 3 10.00 Fair CLR 49.1 36 61% 29.64 0.0
09 01:15 W 3 10.00 Fair CLR 50.5 33.4 52% 29.65 0.0
09 00:55 W 3 10.00 A Few Clouds FEW230 54.1 28.6 70.3 54.1 38% 29.65 0.0
09 00:35 NW 3 10.00 A Few Clouds FEW230 55.2 29.1 37% 29.65 0.0
09 00:15 NW 5 10.00 Partly Cloudy SCT220 57 28.9 34% 29.65 0.0
08 23:55 NW 5 10.00 A Few Clouds FEW230 58.3 28.6 32% 29.65 0.0
08 23:35 NW 5 10.00 Partly Cloudy FEW100 SCT230 59.4 28 30% 29.65 0.0
08 23:15 NW 7 10.00 Partly Cloudy FEW100 SCT240 60.6 27.9 29% 29.65 0.0
08 22:55 NW 7 10.00 Partly Cloudy FEW100 SCT230 61.7 27.3 27% 29.65 0.0
08 22:35 NW 8 10.00 Partly Cloudy SCT100 62.2 27 26% 29.65 0.0
08 22:15 NW 8 10.00 Partly Cloudy SCT100 62.2 27.7 27% 29.65 0.0
08 21:55 NW 8 10.00 Fair CLR 63.5 27.9 26% 29.64 0.0
08 21:35 NW 7 10.00 Fair CLR 63.5 29.5 28% 29.63 0.0
08 21:15 NW 6 10.00 Fair CLR 64.9 30.2 27% 29.62 0.0
08 20:55 NW 6 10.00 Fair CLR 65.8 30 26% 29.61 0.0
08 20:35 NW 8 10.00 Fair CLR 66.7 29.8 25% 29.61 0.0
08 20:15 NW 12 G 18 10.00 A Few Clouds FEW100 68.4 30 24% 29.6 0.0
08 19:55 NW 12 G 17 10.00 Mostly Cloudy BKN100 BKN130 69.8 31.5 24% 29.6 0.0
08 19:35 NW 8 10.00 Mostly Cloudy BKN100 BKN130 70.2 30 23% 29.6 0.0
08 19:15 NW 12 10.00 Overcast FEW050 SCT085 OVC100 70.3 29.7 22% 29.6 0.0
08 18:55 W 6 10.00 Overcast BKN110 OVC130 70.7 27.9 73.4 68.9 20% 29.59 0.0
08 18:35 NW 10 10.00 Mostly Cloudy BKN110 71.1 28 20% 29.6 0.0
08 18:15 W 8 10.00 Mostly Cloudy BKN110 BKN140 71.2 28 20% 29.6 0.0
08 17:55 W 12 G 17 10.00 Mostly Cloudy BKN120 BKN140 72.3 27.3 19% 29.6 0.0
08 17:35 W 5 10.00 Mostly Cloudy BKN120 73 27 18% 29.6 0.0
08 17:15 NW 12 10.00 Overcast BKN110 OVC130 72.7 27.5 19% 29.61 0.0
08 16:55 NW 8 10.00 Overcast OVC110 70.3 26.1 19% 29.62 0.0
08 16:35 W 7 10.00 Overcast OVC110 71.8 26.2 18% 29.63 0.0
08 16:15 W 13 G 17 10.00 Overcast OVC110 72.1 25.5 17% 29.63 0.0
08 15:55 W 10 G 17 10.00 Overcast OVC110 70.9 24.4 17% 29.64 0.0
08 15:35 NW 8 10.00 Overcast OVC110 70.7 23.7 17% 29.65 0.0
08 15:15 W 9 10.00 Overcast OVC110 71.8 25 17% 29.65 0.0
08 14:55 NW 14 G 22 10.00 Overcast OVC110 72.7 24.4 16% 29.66 0.0
08 14:35 NW 13 G 18 10.00 Overcast OVC120 71.1 23.7 17% 29.67 0.0
08 14:15 W 9 G 20 10.00 Mostly Cloudy BKN120 71.8 24.1 17% 29.68 0.0
08 13:55 W 10 G 20 10.00 A Few Clouds FEW370 71.2 23.9 17% 29.68 0.0
08 13:35 NW 12 G 20 10.00 A Few Clouds FEW350 71.1 24.3 17% 29.69 0.0
08 13:15 W 9 G 21 10.00 A Few Clouds FEW330 69.4 24.3 18% 29.7 0.0
08 12:55 SW 10 G 17 10.00 Partly Cloudy FEW100 SCT330 SCT370 69.3 23 69.4 44.1 17% 29.71 0.0
08 12:35 NW 10 G 20 10.00 Partly Cloudy SCT100 67.6 22.3 18% 29.72 0.0
08 12:15 NW 12 10.00 Partly Cloudy SCT095 68.5 24.1 19% 29.74 0.0
08 11:55 W 7 G 17 10.00 A Few Clouds FEW100 67.5 22.5 18% 29.74 0.0
08 11:35 W 9 10.00 Fair CLR 67.1 22.6 18% 29.75 0.0
08 11:15 W 12 G 18 10.00 A Few Clouds FEW110 66.6 23.5 19% 29.76 0.0
08 10:55 W 9 10.00 Mostly Cloudy BKN110 64.8 24.3 21% 29.76 0.0
08 10:35 SW 12 G 20 10.00 Overcast BKN110 OVC130 63.9 25.2 23% 29.76 0.0
08 10:15 SW 12 10.00 Overcast BKN095 OVC120 62.8 25.3 24% 29.77 0.0
08 09:55 SW 10 10.00 Overcast OVC120 59.4 26.2 28% 29.78 0.0
08 09:35 SW 10 10.00 Mostly Cloudy BKN120 57.9 25.9 29% 29.79 0.0
08 09:15 SW 14 10.00 A Few Clouds FEW120 56.7 24.4 29% 29.79 0.0
08 08:55 SW 12 10.00 Fair CLR 54.9 23.2 29% 29.79 0.0
08 08:35 SW 10 10.00 Fair CLR 54.1 24.3 31% 29.79 0.0
08 08:15 SW 13 10.00 Fair CLR 52.3 24.8 34% 29.8 0.0
08 07:55 S 9 10.00 A Few Clouds FEW160 49.8 23.9 36% 47 29.8 0.0
08 07:35 S 8 10.00 Mostly Cloudy SCT140 BKN160 48.2 23.7 38% 45 29.8 0.0
08 07:15 S 7 10.00 Mostly Cloudy BKN140 45.5 23.5 42% 42 29.79 0.0
08 06:55 S 7 9.00 Partly Cloudy SCT140 43.2 22.8 43.7 36.9 45% 40 29.79 0.0
08 06:35 S 7 9.00 Partly Cloudy SCT140 42.1 24.3 49% 38 29.79 0.0
08 06:15 S 5 10.00 Fair CLR 40.8 23.4 50% 38 29.79 0.0
08 05:55 S 5 9.00 Fair CLR 40.3 23.7 52% 38 29.79 0.0
08 05:35 S 5 10.00 Fair CLR 39.2 24.6 56% 36 29.79 0.0
08 05:15 S 3 10.00 Fair CLR 41.4 24.8 52% 29.8 0.0
08 04:55 S 5 10.00 Fair CLR 42.8 22.5 45% 41 29.8 0.0
08 04:35 S 6 10.00 Fair CLR 41.9 23.2 47% 39 29.8 0.0
08 04:15 S 7 10.00 Fair CLR 42.6 23 46% 39 29.8 0.0
08 03:55 S 5 10.00 Fair CLR 43.2 22.8 45% 41 29.8 0.0
08 03:35 S 3 10.00 Fair CLR 43.2 22.8 45% 29.81 0.0
08 03:15 S 5 10.00 Fair CLR 43.3 23 45% 41 29.81 0.0
08 02:55 S 7 9.00 Light Rain CLR 42.3 24.4 49% 38 29.81 0.0
08 02:35 S 7 9.00 Light Rain CLR 41.4 28 59% 37 29.82 0.0
08 02:15 Calm 10.00 Fair CLR 38.8 32.2 77% 29.82 0.0
08 01:55 S 3 10.00 Fair CLR 40.3 29.8 66% 29.82 0.0
08 01:35 S 3 10.00 Fair CLR 39.7 32 74% 29.82 0.0
08 01:15 Calm 10.00 Fair CLR 39.4 30.4 70% 29.82 0.0
08 00:55 Calm 10.00 Fair CLR 40.1 26.8 59.2 39 59% 29.82 0.0
08 00:35 Calm 10.00 Fair CLR 39.6 28.9 66% 29.83 0.0
08 00:15 Calm 10.00 Fair CLR 39.2 29.5 68% 29.83 0.0
07 23:55 Calm 10.00 Fair CLR 40.5 28.6 63% 29.83 0.0
07 23:45 Calm 10.00 Fair CLR 40.8 27.9 60% 29.83 0.0
07 23:41 Calm 10.00 Fair CLR 41 30.2 66% 29.83 0.0
07 23:15 Calm 10.00 Fair CLR 43 26.6 52% 29.83 0.0
07 22:55 Calm 10.00 Fair CLR 43.7 26.4 51% 29.83 0.0
07 22:35 Calm 10.00 Fair CLR 44.2 25.9 49% 29.83 0.0
07 22:15 Calm 10.00 Fair CLR 45.5 26.4 47% 29.83 0.0
07 21:55 Calm 10.00 Fair CLR 47.1 27 46% 29.83 0.0
07 21:35 Calm 10.00 Fair CLR 48 25.3 41% 29.83 0.0
07 21:15 Calm 10.00 Fair CLR 50.4 22.3 33% 29.82 0.0
07 20:55 Calm 10.00 Fair CLR 51.4 23.4 33% 29.81 0.0
07 20:35 Calm 10.00 Fair CLR 53.2 22.6 30% 29.81 0.0
07 20:15 Calm 10.00 Fair CLR 56.1 18.5 23% 29.8 0.0
07 19:55 NW 5 10.00 Fair CLR 57.9 19 22% 29.8 0.0
07 19:35 NW 5 10.00 Fair CLR 58.5 18.7 21% 29.8 0.0
07 19:15 NW 10 10.00 Fair CLR 59 17.6 20% 29.8 0.0
07 18:55 NW 9 10.00 Fair CLR 59.5 17.6 60.4 54.5 19% 29.8 0.0
07 18:35 W 9 G 17 10.00 Fair CLR 59.9 17.4 19% 29.81 0.0
07 18:15 W 8 10.00 Fair CLR 59.4 17.2 19% 29.81 0.0
07 17:55 NW 8 10.00 Fair CLR 59.4 17.1 19% 29.81 0.0
07 17:35 Vrbl 6 10.00 Fair CLR 59.5 17.2 19% 29.81 0.0
07 17:15 NW 9 10.00 Fair CLR 59.9 17.8 19% 29.82 0.0
07 16:55 W 12 10.00 Fair CLR 59.4 16 18% 29.82 0.0
07 16:35 NW 9 10.00 Fair CLR 59.2 16.7 19% 29.82 0.0
07 16:15 NW 8 10.00 Fair CLR 59.2 16.5 19% 29.82 0.0
07 15:55 W 13 G 21 10.00 Fair CLR 58.8 17.1 19% 29.83 0.0
07 15:35 N 9 10.00 Fair CLR 59 17.8 20% 29.83 0.0
07 15:15 NW 8 G 20 10.00 Fair CLR 58.3 17.6 20% 29.83 0.0
07 14:55 W 9 10.00 Fair CLR 58.5 17.8 20% 29.84 0.0
07 14:35 NW 10 10.00 A Few Clouds FEW340 57.7 17.8 21% 29.84 0.0
07 14:15 NW 12 10.00 Fair CLR 57.6 17.2 21% 29.84 0.0
07 13:55 N 13 G 18 10.00 Fair CLR 56.5 17.8 22% 29.84 0.0
07 13:35 N 12 10.00 Fair CLR 56.1 18 22% 29.85 0.0
07 13:15 Calm 10.00 Fair CLR 55.6 18.9 24% 29.85 0.0
07 12:55 Vrbl 6 10.00 A Few Clouds FEW350 55.4 19.9 56.3 36.9 25% 29.86 0.0
07 12:35 Vrbl 5 10.00 Fair CLR 54.1 19 25% 29.86 0.0
07 12:15 N 7 G 17 10.00 Fair CLR 53.6 20.8 28% 29.86 0.0
07 11:55 Vrbl 6 10.00 Fair CLR 53.2 23.2 31% 29.87 0.0
07 11:35 Vrbl 6 10.00 Fair CLR 52 24.3 34% 29.87 0.0
07 11:15 NW 10 10.00 Fair CLR 52.5 24.8 34% 29.87 0.0
07 10:55 N 9 10.00 Fair CLR 51.8 25 35% 29.87 0.0
07 10:35 N 10 10.00 Fair CLR 51.4 25 36% 29.87 0.0
07 10:15 N 9 10.00 Fair CLR 49.8 24.6 37% 47 29.87 0.0
07 09:55 NE 8 10.00 Fair CLR 49.5 25.3 39% 47 29.87 0.0
07 09:35 NE 7 10.00 Fair CLR 48.6 25.7 41% 46 29.87 0.0
07 09:15 NE 8 10.00 Fair CLR 47.5 25.3 42% 44 29.88 0.0
07 08:55 NE 5 10.00 Fair CLR 46.2 23.9 42% 45 29.89 0.0
07 08:35 E 6 10.00 Fair CLR 44.6 24.8 46% 42 29.89 0.0
07 08:15 NE 5 10.00 A Few Clouds FEW090 42.4 25.7 52% 40 29.89 0.0
07 07:55 Calm 9.00 Mostly Cloudy FEW043 BKN090 38.8 27 62% 29.9 0.0
07 07:35 NE 3 9.00 Overcast SCT043 BKN055 OVC080 39 26.1 60% 29.91 0.0
07 07:15 N 7 10.00 Overcast BKN070 BKN085 OVC120 38.8 28 65% 34 29.91 0.0
07 06:55 N 6 8.00 Mostly Cloudy FEW035 SCT085 BKN130 35.8 26.2 37.9 33.8 68% 32 29.89 0.0
07 06:35 N 5 9.00 Mostly Cloudy FEW035 SCT048 SCT075 BKN090 35.1 26.2 70% 32 29.89 0.0
07 06:15 NE 3 9.00 Mostly Cloudy SCT080 BKN090 34.3 26.1 72% 29.89 0.0
07 05:55 NE 5 10.00 Overcast OVC080 35.1 26.4 71% 32 29.89 0.0
07 05:35 N 5 10.00 Overcast BKN080 OVC100 35.4 27.3 72% 32 29.89 0.0
07 05:15 N 6 10.00 Overcast BKN070 OVC090 34.2 28.4 79% 30 29.89 0.0
07 04:55 Calm 10.00 Overcast BKN070 OVC090 36.3 28.2 72% 29.89 0.0
07 04:35 SE 5 10.00 Overcast BKN075 OVC100 36.9 27.7 69% 34 29.89 0.0
07 04:15 Calm 10.00 Mostly Cloudy BKN080 BKN100 36.7 27.3 69% 29.9 0.0
07 03:55 E 3 10.00 A Few Clouds FEW075 37 25.9 64% 29.91 0.0
07 03:35 SE 3 10.00 Mostly Cloudy FEW036 BKN075 BKN090 37.4 26.4 65% 29.91 0.0
07 03:15 SE 6 10.00 Overcast SCT039 BKN047 BKN060 BKN070 OVC085 37.6 27.3 67% 34 29.92 0.0
07 02:55 Calm 10.00 Overcast FEW044 OVC070 36.5 27.1 69% 29.93 0.0
07 02:35 Calm 10.00 Overcast OVC075 36.7 27.5 69% 29.94 0.0
07 02:15 E 3 10.00 Overcast BKN070 OVC085 35.8 28.2 74% 29.94 0.0
07 01:55 N 3 10.00 Overcast BKN070 OVC085 35.4 28.6 76% 29.94 0.0
07 01:35 Calm 10.00 Overcast OVC080 36 28.2 74% 29.94 0.0
07 01:15 Calm 10.00 Overcast OVC080 36 26.8 69% 29.94 0.0
07 00:55 Calm 10.00 Overcast OVC080 34.5 26.4 48 34 72% 29.94 0.0
07 00:35 Calm 10.00 Overcast BKN080 OVC100 34.2 27 75% 29.94 0.0
07 00:15 Calm 10.00 Overcast OVC095 34.3 26.8 74% 29.95 0.0
06 23:55 Calm 10.00 A Few Clouds FEW085 34.2 26.2 73% 29.95 0.0
06 23:35 Calm 10.00 Fair CLR 34 27.5 77% 29.95 0.0
06 23:15 Calm 10.00 Fair CLR 37.4 24.4 60% 29.95 0.0
06 22:55 SE 3 10.00 Fair CLR 36.5 24.6 62% 29.95 0.0
06 22:35 S 3 10.00 Fair CLR 36.9 24.3 60% 29.96 0.0
06 22:15 Calm 10.00 Fair CLR 37.4 23.9 58% 29.97 0.0
06 21:55 Calm 10.00 Fair CLR 39.4 23.2 52% 29.97 0.0
06 21:35 N 3 10.00 Fair CLR 40.3 23 50% 29.98 0.0
06 21:15 N 5 10.00 Fair CLR 41 22.1 47% 38 29.97 0.0
06 20:55 N 5 10.00 Fair CLR 43.2 22.3 44% 41 29.97 0.0
06 20:40 N 6 10.00 Fair CLR 42.8 22.6 45% 40 29.97 0.0
06 20:15 N 6 10.00 Fair CLR 45.1 22.5 41% 43 29.97 0.0
06 19:55 NW 7 10.00 Fair CLR 46.6 22.8 39% 44 29.97 0.0
06 19:35 NW 9 10.00 Fair CLR 47.1 22.5 38% 43 29.97 0.0
06 19:15 NW 9 10.00 Fair CLR 47.7 22.5 37% 44 29.97 0.0
06 18:55 NW 12 10.00 Partly Cloudy SCT060 47.8 22.5 49.3 42.1 37% 43 29.97 0.0
06 18:35 NW 12 10.00 Partly Cloudy SCT060 48 22.1 36% 44 29.98 0.0
06 18:15 NW 12 10.00 A Few Clouds FEW060 48.7 22.8 36% 44 29.98 0.0
06 17:55 W 12 G 22 10.00 A Few Clouds FEW060 48.6 22.1 35% 44 29.98 0.0
06 17:35 NW 12 G 17 10.00 Partly Cloudy SCT060 48.9 23.2 36% 45 29.98 0.0
06 17:15 NW 10 G 18 10.00 A Few Clouds FEW055 48 22.6 37% 44 29.98 0.0
06 16:55 W 15 G 20 10.00 Partly Cloudy SCT060 47.8 22.3 36% 42 29.98 0.0
06 16:35 NW 9 G 24 10.00 Partly Cloudy SCT055 47.8 22.6 37% 44 29.99 0.0
06 16:15 NW 13 G 23 10.00 Mostly Cloudy BKN055 48.2 22.5 36% 43 29.99 0.0
06 15:55 NW 12 G 21 10.00 Mostly Cloudy BKN055 47.1 22.5 38% 42 30 0.0
06 15:35 W 12 G 17 10.00 Mostly Cloudy BKN055 48 22.6 37% 44 30 0.0
06 15:15 NW 15 G 24 10.00 Mostly Cloudy BKN055 45.7 21.9 39% 40 30.01 0.0
06 14:55 W 13 G 22 10.00 Overcast OVC050 45.3 22.6 41% 40 30.02 0.0
06 14:35 NW 15 G 22 10.00 Overcast OVC050 44.8 22.5 41% 39 30.02 0.0
06 14:15 NW 14 G 17 10.00 Overcast BKN049 OVC055 44.6 22.8 42% 39 30.02 0.0
06 13:55 W 10 G 20 10.00 Overcast OVC050 43.2 22.1 43% 38 30.02 0.0
06 13:35 NW 9 10.00 Overcast OVC048 43.3 22.5 44% 39 30.02 0.0
06 13:15 NW 12 G 16 10.00 Overcast OVC049 42.3 21.7 44% 36 30.03 0.0
06 12:55 W 9 G 17 10.00 Overcast OVC047 42.1 21.7 42.3 33.4 44% 37 30.03 0.0
06 12:35 NW 10 G 20 10.00 Overcast OVC049 41.9 21.6 44% 36 30.03 0.0
06 12:15 W 13 G 21 10.00 Overcast OVC050 41.5 20.8 44% 35 30.03 0.0
06 11:55 W 12 G 21 10.00 Overcast OVC049 41.5 21.2 44% 36 30.03 0.0
06 11:35 NW 10 10.00 Overcast OVC050 41.7 21 44% 36 30.03 0.0
06 11:15 NW 9 G 24 10.00 Overcast OVC050 41.4 21.7 46% 36 30.03 0.0
06 10:55 W 12 10.00 Overcast BKN049 OVC055 41.4 21.9 46% 35 30.03 0.0
06 10:35 W 9 10.00 Overcast SCT045 OVC055 41.4 22.1 46% 36 30.03 0.0
06 10:15 Vrbl 7 10.00 Overcast FEW040 OVC055 41.5 23.2 48% 38 30.02 0.0
06 09:55 Vrbl 7 10.00 Overcast FEW039 OVC055 41 23.2 49% 37 30.02 0.0
06 09:35 NW 7 10.00 Overcast FEW050 OVC060 40.8 22.8 49% 37 30.02 0.0
06 09:15 Vrbl 6 10.00 Overcast SCT050 OVC060 39.6 23.9 54% 36 30.02 0.0
06 08:55 W 5 10.00 Overcast OVC060 39.2 24.4 56% 36 30.02 0.0
06 08:35 W 3 10.00 Overcast OVC060 38.7 24.6 57% 30.02 0.0
06 08:15 Vrbl 5 10.00 Overcast OVC060 37.9 25.7 61% 35 30.01 0.0
06 07:55 W 3 10.00 Overcast OVC060 36.7 26.1 65% 30.01 0.0
06 07:35 W 5 10.00 Overcast OVC060 35.6 25.9 68% 32 30 0.0
06 07:15 W 3 10.00 Mostly Cloudy BKN060 34.5 25.7 70% 30 0.0
06 06:55 Calm 10.00 Fair CLR 31.6 26.8 38.8 29.1 82% 29.98 0.0
Date Time (cdt) Wind (mph) Vis. (mi.) Weather Sky Cond. Air Dwpt Max. Min. Relative Humidity Wind Chill (°F) Heat Index (°F) altimeter (in) sea level (mb) 1 hr 3 hr 6 hr
6 hour
Temperature (ºF) Pressure Precipitation (in)